sensor_id;sensor_type;location;lat;lon;timestamp;P1;durP1;ratioP1;P2;durP2;ratioP2
74180;SDS011;62544;50.826;14.354;2022-07-29T12:22:39;72.82;;;36.41;;
74180;SDS011;62544;50.826;14.354;2022-07-29T15:39:43;5.30;;;2.20;;
74180;SDS011;62544;50.826;14.354;2022-07-29T15:43:45;5.30;;;2.20;;
74180;SDS011;62544;50.826;14.354;2022-07-29T15:47:47;5.30;;;2.20;;
74180;SDS011;62544;50.826;14.354;2022-07-29T15:51:49;4.90;;;2.00;;
74180;SDS011;62544;50.826;14.354;2022-07-29T15:55:51;4.90;;;2.00;;
74180;SDS011;62544;50.826;14.354;2022-07-29T15:59:53;5.70;;;2.30;;
74180;SDS011;62544;50.826;14.354;2022-07-29T16:03:56;5.70;;;2.30;;
74180;SDS011;62544;50.826;14.354;2022-07-29T16:07:57;5.70;;;2.30;;
74180;SDS011;62544;50.826;14.354;2022-07-29T16:11:59;7.89;;;2.30;;
74180;SDS011;62544;50.826;14.354;2022-07-29T16:16:01;7.89;;;2.30;;
74180;SDS011;62544;50.826;14.354;2022-07-29T16:20:03;5.39;;;2.40;;
74180;SDS011;62544;50.826;14.354;2022-07-29T16:24:05;5.39;;;2.40;;
74180;SDS011;62544;50.826;14.354;2022-07-29T16:28:07;5.39;;;2.40;;
74180;SDS011;62544;50.826;14.354;2022-07-29T16:32:09;6.49;;;2.40;;
74180;SDS011;62544;50.826;14.354;2022-07-29T16:36:11;6.49;;;2.40;;
74180;SDS011;62544;50.826;14.354;2022-07-29T16:40:13;5.19;;;1.90;;
74180;SDS011;62544;50.826;14.354;2022-07-29T16:44:15;5.19;;;1.90;;
74180;SDS011;62544;50.826;14.354;2022-07-29T16:48:17;5.19;;;1.90;;
74180;SDS011;62544;50.826;14.354;2022-07-29T16:52:19;8.79;;;1.90;;
74180;SDS011;62544;50.826;14.354;2022-07-29T16:56:21;8.79;;;1.90;;
74180;SDS011;62544;50.826;14.354;2022-07-29T17:00:23;5.69;;;2.60;;
74180;SDS011;62544;50.826;14.354;2022-07-29T17:04:25;5.69;;;2.60;;
74180;SDS011;62544;50.826;14.354;2022-07-29T17:08:27;5.59;;;2.50;;
74180;SDS011;62544;50.826;14.354;2022-07-29T17:12:30;5.59;;;2.50;;
74180;SDS011;62544;50.826;14.354;2022-07-29T17:16:31;5.59;;;2.50;;
74180;SDS011;62544;50.826;14.354;2022-07-29T17:20:33;6.39;;;2.10;;
74180;SDS011;62544;50.826;14.354;2022-07-29T17:24:35;6.39;;;2.10;;
74180;SDS011;62544;50.826;14.354;2022-07-29T17:28:37;10.18;;;2.40;;
74180;SDS011;62544;50.826;14.354;2022-07-29T17:32:39;10.18;;;2.40;;
74180;SDS011;62544;50.826;14.354;2022-07-29T17:36:42;10.18;;;2.40;;
74180;SDS011;62544;50.826;14.354;2022-07-29T17:40:43;10.27;;;3.89;;
74180;SDS011;62544;50.826;14.354;2022-07-29T17:44:45;10.27;;;3.89;;
74180;SDS011;62544;50.826;14.354;2022-07-29T17:48:47;7.87;;;3.19;;
74180;SDS011;62544;50.826;14.354;2022-07-29T17:52:49;7.87;;;3.19;;
74180;SDS011;62544;50.826;14.354;2022-07-29T17:56:51;7.87;;;3.19;;
74180;SDS011;62544;50.826;14.354;2022-07-29T18:00:53;49.72;;;25.85;;
74180;SDS011;62544;50.826;14.354;2022-07-29T18:04:55;49.72;;;25.85;;
74180;SDS011;62544;50.826;14.354;2022-07-29T18:08:57;76.63;;;40.40;;
74180;SDS011;62544;50.826;14.354;2022-07-29T18:12:59;76.63;;;40.40;;
74180;SDS011;62544;50.826;14.354;2022-07-29T18:17:01;76.63;;;40.40;;
74180;SDS011;62544;50.826;14.354;2022-07-29T18:21:03;8.65;;;3.93;;
74180;SDS011;62544;50.826;14.354;2022-07-29T18:25:06;8.65;;;3.93;;
74180;SDS011;62544;50.826;14.354;2022-07-29T18:29:07;43.85;;;21.34;;
74180;SDS011;62544;50.826;14.354;2022-07-29T18:33:09;43.85;;;21.34;;
74180;SDS011;62544;50.826;14.354;2022-07-29T18:37:11;43.85;;;21.34;;
74180;SDS011;62544;50.826;14.354;2022-07-29T18:41:13;53.39;;;23.64;;
74180;SDS011;62544;50.826;14.354;2022-07-29T18:45:15;53.39;;;23.64;;
74180;SDS011;62544;50.826;14.354;2022-07-29T18:49:17;54.73;;;33.68;;
74180;SDS011;62544;50.826;14.354;2022-07-29T18:53:19;54.73;;;33.68;;
74180;SDS011;62544;50.826;14.354;2022-07-29T18:57:21;54.73;;;33.68;;
74180;SDS011;62544;50.826;14.354;2022-07-29T19:01:23;23.51;;;13.00;;
74180;SDS011;62544;50.826;14.354;2022-07-29T19:05:25;23.51;;;13.00;;
74180;SDS011;62544;50.826;14.354;2022-07-29T19:09:28;15.60;;;11.12;;
74180;SDS011;62544;50.826;14.354;2022-07-29T19:13:29;15.60;;;11.12;;
74180;SDS011;62544;50.826;14.354;2022-07-29T19:17:31;15.60;;;11.12;;
74180;SDS011;62544;50.826;14.354;2022-07-29T19:21:33;14.17;;;7.59;;
74180;SDS011;62544;50.826;14.354;2022-07-29T19:25:35;14.17;;;7.59;;
74180;SDS011;62544;50.826;14.354;2022-07-29T19:29:37;16.74;;;9.27;;
74180;SDS011;62544;50.826;14.354;2022-07-29T19:33:39;16.74;;;9.27;;
74180;SDS011;62544;50.826;14.354;2022-07-29T19:37:41;16.74;;;9.27;;
74180;SDS011;62544;50.826;14.354;2022-07-29T19:41:43;48.56;;;26.17;;
74180;SDS011;62544;50.826;14.354;2022-07-29T19:45:45;48.56;;;26.17;;
74180;SDS011;62544;50.826;14.354;2022-07-29T19:49:47;24.90;;;15.21;;
74180;SDS011;62544;50.826;14.354;2022-07-29T19:53:49;24.90;;;15.21;;
74180;SDS011;62544;50.826;14.354;2022-07-29T19:57:51;24.90;;;15.21;;
74180;SDS011;62544;50.826;14.354;2022-07-29T20:01:53;16.91;;;11.53;;
74180;SDS011;62544;50.826;14.354;2022-07-29T20:05:55;16.91;;;11.53;;
74180;SDS011;62544;50.826;14.354;2022-07-29T20:09:57;11.84;;;6.40;;
74180;SDS011;62544;50.826;14.354;2022-07-29T20:13:59;11.84;;;6.40;;
74180;SDS011;62544;50.826;14.354;2022-07-29T20:18:01;11.84;;;6.40;;
74180;SDS011;62544;50.826;14.354;2022-07-29T20:22:03;10.01;;;5.89;;
74180;SDS011;62544;50.826;14.354;2022-07-29T20:26:05;10.01;;;5.89;;
74180;SDS011;62544;50.826;14.354;2022-07-29T20:30:07;7.52;;;4.64;;
74180;SDS011;62544;50.826;14.354;2022-07-29T20:34:09;7.52;;;4.64;;
74180;SDS011;62544;50.826;14.354;2022-07-29T20:38:11;7.52;;;4.64;;
74180;SDS011;62544;50.826;14.354;2022-07-29T20:42:14;4.85;;;3.72;;
74180;SDS011;62544;50.826;14.354;2022-07-29T20:46:15;4.85;;;3.72;;
74180;SDS011;62544;50.826;14.354;2022-07-29T20:50:18;7.23;;;4.24;;
74180;SDS011;62544;50.826;14.354;2022-07-29T20:54:19;7.23;;;4.24;;
74180;SDS011;62544;50.826;14.354;2022-07-29T20:58:21;7.23;;;4.24;;
74180;SDS011;62544;50.826;14.354;2022-07-29T21:02:23;15.70;;;9.99;;
74180;SDS011;62544;50.826;14.354;2022-07-29T21:06:25;15.70;;;9.99;;
74180;SDS011;62544;50.826;14.354;2022-07-29T21:10:27;5.05;;;3.86;;
74180;SDS011;62544;50.826;14.354;2022-07-29T21:14:29;5.05;;;3.86;;
74180;SDS011;62544;50.826;14.354;2022-07-29T21:18:31;5.81;;;4.13;;
74180;SDS011;62544;50.826;14.354;2022-07-29T21:22:33;5.81;;;4.13;;
74180;SDS011;62544;50.826;14.354;2022-07-29T21:26:35;5.81;;;4.13;;
74180;SDS011;62544;50.826;14.354;2022-07-29T21:30:37;5.04;;;3.71;;
74180;SDS011;62544;50.826;14.354;2022-07-29T21:34:39;5.04;;;3.71;;
74180;SDS011;62544;50.826;14.354;2022-07-29T21:38:41;5.06;;;3.85;;
74180;SDS011;62544;50.826;14.354;2022-07-29T21:42:43;5.06;;;3.85;;
74180;SDS011;62544;50.826;14.354;2022-07-29T21:46:45;5.06;;;3.85;;
74180;SDS011;62544;50.826;14.354;2022-07-29T21:50:47;5.35;;;3.98;;
74180;SDS011;62544;50.826;14.354;2022-07-29T21:54:49;5.35;;;3.98;;
74180;SDS011;62544;50.826;14.354;2022-07-29T21:58:51;4.21;;;3.83;;
74180;SDS011;62544;50.826;14.354;2022-07-29T22:02:53;4.21;;;3.83;;
74180;SDS011;62544;50.826;14.354;2022-07-29T22:06:55;4.21;;;3.83;;
74180;SDS011;62544;50.826;14.354;2022-07-29T22:10:57;5.65;;;4.00;;
74180;SDS011;62544;50.826;14.354;2022-07-29T22:14:59;5.65;;;4.00;;
74180;SDS011;62544;50.826;14.354;2022-07-29T22:19:01;4.41;;;3.60;;
74180;SDS011;62544;50.826;14.354;2022-07-29T22:23:03;4.41;;;3.60;;
74180;SDS011;62544;50.826;14.354;2022-07-29T22:27:05;4.41;;;3.60;;
74180;SDS011;62544;50.826;14.354;2022-07-29T22:31:07;3.88;;;3.44;;
74180;SDS011;62544;50.826;14.354;2022-07-29T22:35:09;3.88;;;3.44;;
74180;SDS011;62544;50.826;14.354;2022-07-29T22:39:11;4.73;;;3.49;;
74180;SDS011;62544;50.826;14.354;2022-07-29T22:43:13;4.73;;;3.49;;
74180;SDS011;62544;50.826;14.354;2022-07-29T22:47:15;4.73;;;3.49;;
74180;SDS011;62544;50.826;14.354;2022-07-29T22:51:17;5.78;;;4.29;;
74180;SDS011;62544;50.826;14.354;2022-07-29T22:55:19;5.78;;;4.29;;
74180;SDS011;62544;50.826;14.354;2022-07-29T22:59:21;5.16;;;3.87;;
74180;SDS011;62544;50.826;14.354;2022-07-29T23:03:23;5.16;;;3.87;;
74180;SDS011;62544;50.826;14.354;2022-07-29T23:07:25;5.16;;;3.87;;
74180;SDS011;62544;50.826;14.354;2022-07-29T23:11:27;4.38;;;3.76;;
74180;SDS011;62544;50.826;14.354;2022-07-29T23:15:29;4.38;;;3.76;;
74180;SDS011;62544;50.826;14.354;2022-07-29T23:19:31;6.38;;;4.53;;
74180;SDS011;62544;50.826;14.354;2022-07-29T23:23:33;6.38;;;4.53;;
74180;SDS011;62544;50.826;14.354;2022-07-29T23:27:35;6.38;;;4.53;;
74180;SDS011;62544;50.826;14.354;2022-07-29T23:31:37;5.34;;;4.14;;
74180;SDS011;62544;50.826;14.354;2022-07-29T23:35:39;5.34;;;4.14;;
74180;SDS011;62544;50.826;14.354;2022-07-29T23:39:41;4.56;;;3.90;;
74180;SDS011;62544;50.826;14.354;2022-07-29T23:43:43;4.56;;;3.90;;
74180;SDS011;62544;50.826;14.354;2022-07-29T23:47:45;4.56;;;3.90;;
74180;SDS011;62544;50.826;14.354;2022-07-29T23:51:47;4.98;;;4.27;;
74180;SDS011;62544;50.826;14.354;2022-07-29T23:55:49;4.98;;;4.27;;
74180;SDS011;62544;50.826;14.354;2022-07-29T23:59:51;5.80;;;3.81;;
